Long Beach, CA (90815)

8:11 AM PDT on August 30, 2016 (GMT -0700)
Long Beach | | Change Station

Elev 20 ft 33.80 °N, 118.09 °W | Updated 32 seconds ago

Overcast
Overcast
68.3 °F
Feels Like 68.3 °F
N
2.0
Wind Variable Wind from SSE
Gusts 2.0 mph

Today
High -- | Low -- °F
--% Chance of Precip.
Yesterday
High -- | Low -- °F
Precip. -- in
Pressure 29.88 in
Visibility 6.0 miles
Clouds Overcast 800 ft
Dew Point 65 °F
Humidity 89%
Rainfall 0.00 in
Snow Depth Not available.
6:25 AM 7:19 PM
Waning Crescent, 3% visible
METAR KLGB 301453Z VRB03KT 6SM BR OVC008 20/18 A2988 RMK AO2 SLP117 T02000178 53005
Pressure 29.88 in
Visibility 6.0 miles
Clouds Overcast 800 ft
Dew Point 65 °F
Humidity 89%
Rainfall 0.00 in
Snow Depth Not available.
6:25 AM 7:19 PM
Waning Crescent, 3% visible
METAR KLGB 301453Z VRB03KT 6SM BR OVC008 20/18 A2988 RMK AO2 SLP117 T02000178 53005

10-Day Weather Forecast

Almanac

Astronomy

Aug. 30, 2016 Rise Set
Actual Time
Civil Twilight
Nautical Twilight
Astronomical Twilight
Moon
Length of Visible Light
Length of Day
Tomorrow will be .
, % of the Moon is Illuminated

Today's Extremes

State Highs State Lows

Community

WunderPhotos

Upload Photos

1,935,855 photos uploaded!

WunderBlog® & News

Nearby

Air Quality

  Air Quality AQ Index Pollutant
Not available.

Snow Depth

Station Depth Elevation

Earthquake Activity

City Distance Mag. Time & Date
Minimum magnitude displayed is 2.5.

Coastal Water Temperatures

Place Temperature

Stations

Nearby Weather Stations

Station Location Temp. Windchill Dew Point Humidity Wind Precip. Elev Updated Type
                   

Watches & Warnings

There are currently no watches in effect.